sensor_id;sensor_type;location;lat;lon;timestamp;pressure;altitude;pressure_sealevel;temperature;humidity
64141;BME280;50436;50.618;7.932;2023-12-14T00:02:29;95473.47;;;3.19;100.00
64141;BME280;50436;50.618;7.932;2023-12-14T00:05:15;95482.34;;;3.24;100.00
64141;BME280;50436;50.618;7.932;2023-12-14T00:08:01;95483.88;;;3.32;100.00
64141;BME280;50436;50.618;7.932;2023-12-14T00:10:47;95491.84;;;3.44;100.00
64141;BME280;50436;50.618;7.932;2023-12-14T00:13:33;95487.94;;;3.58;100.00
64141;BME280;50436;50.618;7.932;2023-12-14T00:16:19;95487.63;;;3.66;100.00
64141;BME280;50436;50.618;7.932;2023-12-14T00:19:05;95494.97;;;3.64;100.00
64141;BME280;50436;50.618;7.932;2023-12-14T00:21:51;95494.88;;;3.71;100.00
64141;BME280;50436;50.618;7.932;2023-12-14T00:24:37;95508.34;;;3.69;100.00
64141;BME280;50436;50.618;7.932;2023-12-14T00:27:23;95509.97;;;3.82;100.00
64141;BME280;50436;50.618;7.932;2023-12-14T00:30:09;95511.25;;;3.91;100.00
64141;BME280;50436;50.618;7.932;2023-12-14T00:33:06;95518.84;;;3.99;100.00
64141;BME280;50436;50.618;7.932;2023-12-14T00:36:22;95517.91;;;4.05;100.00
64141;BME280;50436;50.618;7.932;2023-12-14T00:39:08;95529.09;;;4.07;100.00
64141;BME280;50436;50.618;7.932;2023-12-14T00:41:54;95531.16;;;4.05;100.00
64141;BME280;50436;50.618;7.932;2023-12-14T00:44:39;95530.47;;;3.98;100.00
64141;BME280;50436;50.618;7.932;2023-12-14T00:47:25;95533.91;;;4.10;100.00
64141;BME280;50436;50.618;7.932;2023-12-14T00:50:11;95540.94;;;4.16;100.00
64141;BME280;50436;50.618;7.932;2023-12-14T00:52:57;95544.94;;;4.19;100.00
64141;BME280;50436;50.618;7.932;2023-12-14T00:55:43;95547.16;;;4.22;100.00
64141;BME280;50436;50.618;7.932;2023-12-14T00:58:30;95553.03;;;4.24;100.00
64141;BME280;50436;50.618;7.932;2023-12-14T01:01:16;95563.84;;;4.23;100.00
64141;BME280;50436;50.618;7.932;2023-12-14T01:04:02;95564.41;;;4.25;100.00
64141;BME280;50436;50.618;7.932;2023-12-14T01:06:48;95570.19;;;4.22;100.00
64141;BME280;50436;50.618;7.932;2023-12-14T01:09:34;95569.03;;;4.17;100.00
64141;BME280;50436;50.618;7.932;2023-12-14T01:12:19;95577.53;;;4.19;100.00
64141;BME280;50436;50.618;7.932;2023-12-14T01:15:06;95584.47;;;4.21;100.00
64141;BME280;50436;50.618;7.932;2023-12-14T01:17:52;95577.78;;;4.18;100.00
64141;BME280;50436;50.618;7.932;2023-12-14T01:20:38;95591.81;;;4.18;100.00
64141;BME280;50436;50.618;7.932;2023-12-14T01:23:24;95592.84;;;4.17;100.00
64141;BME280;50436;50.618;7.932;2023-12-14T01:26:09;95596.88;;;4.20;100.00
64141;BME280;50436;50.618;7.932;2023-12-14T01:28:57;95590.34;;;4.23;100.00
64141;BME280;50436;50.618;7.932;2023-12-14T01:31:44;95600.47;;;4.26;100.00
64141;BME280;50436;50.618;7.932;2023-12-14T01:34:30;95603.09;;;4.26;100.00
64141;BME280;50436;50.618;7.932;2023-12-14T01:37:16;95608.88;;;4.23;100.00
64141;BME280;50436;50.618;7.932;2023-12-14T01:40:02;95610.34;;;4.07;100.00
64141;BME280;50436;50.618;7.932;2023-12-14T01:42:48;95625.19;;;4.08;100.00
64141;BME280;50436;50.618;7.932;2023-12-14T01:45:34;95619.81;;;4.14;100.00
64141;BME280;50436;50.618;7.932;2023-12-14T01:48:20;95633.38;;;4.18;100.00
64141;BME280;50436;50.618;7.932;2023-12-14T01:51:06;95628.19;;;4.11;100.00
64141;BME280;50436;50.618;7.932;2023-12-14T01:53:52;95632.00;;;4.15;100.00
64141;BME280;50436;50.618;7.932;2023-12-14T01:56:38;95624.63;;;4.17;100.00
64141;BME280;50436;50.618;7.932;2023-12-14T01:59:26;95642.50;;;4.22;100.00
64141;BME280;50436;50.618;7.932;2023-12-14T02:02:13;95637.78;;;4.24;100.00
64141;BME280;50436;50.618;7.932;2023-12-14T02:04:59;95640.56;;;4.29;100.00
64141;BME280;50436;50.618;7.932;2023-12-14T02:07:44;95648.69;;;4.28;100.00
64141;BME280;50436;50.618;7.932;2023-12-14T02:10:30;95651.16;;;4.29;100.00
64141;BME280;50436;50.618;7.932;2023-12-14T02:13:17;95654.22;;;4.26;100.00
64141;BME280;50436;50.618;7.932;2023-12-14T02:16:03;95666.78;;;4.19;100.00
64141;BME280;50436;50.618;7.932;2023-12-14T02:18:49;95668.19;;;4.33;100.00
64141;BME280;50436;50.618;7.932;2023-12-14T02:21:35;95663.69;;;4.34;100.00
64141;BME280;50436;50.618;7.932;2023-12-14T02:24:20;95672.91;;;4.43;100.00
64141;BME280;50436;50.618;7.932;2023-12-14T02:27:06;95672.13;;;4.54;100.00
64141;BME280;50436;50.618;7.932;2023-12-14T02:29:52;95676.38;;;4.43;100.00
64141;BME280;50436;50.618;7.932;2023-12-14T02:32:38;95673.16;;;4.41;100.00
64141;BME280;50436;50.618;7.932;2023-12-14T02:35:24;95677.31;;;4.49;100.00
64141;BME280;50436;50.618;7.932;2023-12-14T02:38:10;95680.53;;;4.63;100.00
64141;BME280;50436;50.618;7.932;2023-12-14T02:40:56;95678.81;;;4.68;100.00
64141;BME280;50436;50.618;7.932;2023-12-14T02:43:42;95687.22;;;4.65;100.00
64141;BME280;50436;50.618;7.932;2023-12-14T02:46:28;95694.25;;;4.71;100.00
64141;BME280;50436;50.618;7.932;2023-12-14T02:49:14;95702.44;;;4.70;100.00
64141;BME280;50436;50.618;7.932;2023-12-14T02:52:00;95703.47;;;4.69;100.00
64141;BME280;50436;50.618;7.932;2023-12-14T02:54:46;95708.09;;;4.73;100.00
64141;BME280;50436;50.618;7.932;2023-12-14T02:57:32;95705.56;;;4.79;100.00
64141;BME280;50436;50.618;7.932;2023-12-14T03:00:18;95713.50;;;4.79;100.00
64141;BME280;50436;50.618;7.932;2023-12-14T03:03:04;95713.50;;;4.79;100.00
64141;BME280;50436;50.618;7.932;2023-12-14T03:05:49;95715.47;;;4.83;100.00
64141;BME280;50436;50.618;7.932;2023-12-14T03:08:35;95721.94;;;4.87;100.00
64141;BME280;50436;50.618;7.932;2023-12-14T03:11:22;95725.94;;;4.90;100.00
64141;BME280;50436;50.618;7.932;2023-12-14T03:14:11;95727.13;;;4.94;100.00
64141;BME280;50436;50.618;7.932;2023-12-14T03:16:56;95731.94;;;4.97;100.00
64141;BME280;50436;50.618;7.932;2023-12-14T03:19:42;95727.69;;;4.96;100.00
64141;BME280;50436;50.618;7.932;2023-12-14T03:22:28;95730.69;;;4.99;100.00
64141;BME280;50436;50.618;7.932;2023-12-14T03:25:14;95741.75;;;4.96;100.00
64141;BME280;50436;50.618;7.932;2023-12-14T03:28:00;95745.19;;;4.97;100.00
64141;BME280;50436;50.618;7.932;2023-12-14T03:30:46;95744.16;;;4.98;100.00
64141;BME280;50436;50.618;7.932;2023-12-14T03:33:32;95751.31;;;4.97;100.00
64141;BME280;50436;50.618;7.932;2023-12-14T03:36:18;95754.31;;;5.01;100.00
64141;BME280;50436;50.618;7.932;2023-12-14T03:39:03;95755.13;;;5.01;100.00
64141;BME280;50436;50.618;7.932;2023-12-14T03:41:50;95762.53;;;4.99;100.00
64141;BME280;50436;50.618;7.932;2023-12-14T03:44:36;95764.47;;;4.92;100.00
64141;BME280;50436;50.618;7.932;2023-12-14T03:47:21;95764.09;;;4.89;100.00
64141;BME280;50436;50.618;7.932;2023-12-14T03:50:10;95770.09;;;4.96;100.00
64141;BME280;50436;50.618;7.932;2023-12-14T03:52:56;95774.72;;;4.89;100.00
64141;BME280;50436;50.618;7.932;2023-12-14T03:55:42;95785.88;;;4.67;100.00
64141;BME280;50436;50.618;7.932;2023-12-14T03:58:28;95788.63;;;4.72;100.00
64141;BME280;50436;50.618;7.932;2023-12-14T04:01:18;95784.75;;;4.75;100.00
64141;BME280;50436;50.618;7.932;2023-12-14T04:04:03;95790.03;;;4.75;100.00
64141;BME280;50436;50.618;7.932;2023-12-14T04:06:49;95795.34;;;4.75;100.00
64141;BME280;50436;50.618;7.932;2023-12-14T04:09:36;95797.63;;;4.71;100.00
64141;BME280;50436;50.618;7.932;2023-12-14T04:12:22;95800.75;;;4.68;100.00
64141;BME280;50436;50.618;7.932;2023-12-14T04:15:09;95811.69;;;4.72;100.00
64141;BME280;50436;50.618;7.932;2023-12-14T04:17:55;95811.34;;;4.68;100.00
64141;BME280;50436;50.618;7.932;2023-12-14T04:20:41;95818.69;;;4.66;100.00
64141;BME280;50436;50.618;7.932;2023-12-14T04:23:27;95815.94;;;4.61;100.00
64141;BME280;50436;50.618;7.932;2023-12-14T04:26:13;95813.38;;;4.55;100.00
64141;BME280;50436;50.618;7.932;2023-12-14T04:29:00;95824.31;;;4.58;100.00
64141;BME280;50436;50.618;7.932;2023-12-14T04:31:46;95827.19;;;4.57;100.00
64141;BME280;50436;50.618;7.932;2023-12-14T04:34:32;95836.66;;;4.53;100.00
64141;BME280;50436;50.618;7.932;2023-12-14T04:37:17;95842.03;;;4.46;100.00
64141;BME280;50436;50.618;7.932;2023-12-14T04:40:04;95848.94;;;4.47;100.00
64141;BME280;50436;50.618;7.932;2023-12-14T04:42:50;95846.06;;;4.48;100.00
64141;BME280;50436;50.618;7.932;2023-12-14T04:45:35;95852.97;;;4.50;100.00
64141;BME280;50436;50.618;7.932;2023-12-14T04:48:21;95849.28;;;4.51;100.00
64141;BME280;50436;50.618;7.932;2023-12-14T04:51:11;95848.94;;;4.47;100.00
64141;BME280;50436;50.618;7.932;2023-12-14T04:53:57;95856.09;;;4.46;100.00
64141;BME280;50436;50.618;7.932;2023-12-14T04:56:46;95874.88;;;4.45;100.00
64141;BME280;50436;50.618;7.932;2023-12-14T04:59:34;95878.66;;;4.49;100.00
64141;BME280;50436;50.618;7.932;2023-12-14T05:02:20;95879.25;;;4.51;100.00
64141;BME280;50436;50.618;7.932;2023-12-14T05:05:06;95879.03;;;4.53;100.00
64141;BME280;50436;50.618;7.932;2023-12-14T05:07:52;95890.78;;;4.57;100.00
64141;BME280;50436;50.618;7.932;2023-12-14T05:10:38;95897.50;;;4.59;100.00
64141;BME280;50436;50.618;7.932;2023-12-14T05:13:24;95892.22;;;4.59;100.00
64141;BME280;50436;50.618;7.932;2023-12-14T05:16:14;95897.34;;;4.54;100.00
64141;BME280;50436;50.618;7.932;2023-12-14T05:19:00;95898.16;;;4.55;100.00
64141;BME280;50436;50.618;7.932;2023-12-14T05:21:46;95901.63;;;4.55;100.00
64141;BME280;50436;50.618;7.932;2023-12-14T05:24:32;95909.22;;;4.52;100.00
64141;BME280;50436;50.618;7.932;2023-12-14T05:27:18;95912.53;;;4.47;100.00
64141;BME280;50436;50.618;7.932;2023-12-14T05:30:04;95913.78;;;4.44;100.00
64141;BME280;50436;50.618;7.932;2023-12-14T05:32:50;95909.66;;;4.48;100.00
64141;BME280;50436;50.618;7.932;2023-12-14T05:35:36;95918.41;;;4.49;100.00
64141;BME280;50436;50.618;7.932;2023-12-14T05:38:22;95921.94;;;4.43;100.00
64141;BME280;50436;50.618;7.932;2023-12-14T05:41:08;95925.69;;;4.35;100.00
64141;BME280;50436;50.618;7.932;2023-12-14T05:43:54;95930.19;;;4.35;100.00
64141;BME280;50436;50.618;7.932;2023-12-14T05:46:40;95938.00;;;4.30;100.00
64141;BME280;50436;50.618;7.932;2023-12-14T05:49:25;95945.50;;;4.33;100.00
64141;BME280;50436;50.618;7.932;2023-12-14T05:52:11;95950.97;;;4.38;100.00
64141;BME280;50436;50.618;7.932;2023-12-14T05:55:04;95953.03;;;4.36;100.00
64141;BME280;50436;50.618;7.932;2023-12-14T05:57:50;95955.28;;;4.32;100.00
64141;BME280;50436;50.618;7.932;2023-12-14T06:00:36;95964.44;;;4.36;100.00
64141;BME280;50436;50.618;7.932;2023-12-14T06:03:22;95975.22;;;4.35;100.00
64141;BME280;50436;50.618;7.932;2023-12-14T06:06:08;95975.44;;;4.33;100.00
64141;BME280;50436;50.618;7.932;2023-12-14T06:08:54;95973.69;;;4.27;100.00
64141;BME280;50436;50.618;7.932;2023-12-14T06:11:40;95986.06;;;4.33;100.00
64141;BME280;50436;50.618;7.932;2023-12-14T06:14:26;95979.94;;;4.33;100.00
64141;BME280;50436;50.618;7.932;2023-12-14T06:17:12;95988.28;;;4.36;100.00
64141;BME280;50436;50.618;7.932;2023-12-14T06:19:58;95984.81;;;4.36;100.00
64141;BME280;50436;50.618;7.932;2023-12-14T06:22:43;95994.81;;;4.34;100.00
64141;BME280;50436;50.618;7.932;2023-12-14T06:25:29;96000.78;;;4.29;100.00
64141;BME280;50436;50.618;7.932;2023-12-14T06:28:15;96013.78;;;4.31;100.00
64141;BME280;50436;50.618;7.932;2023-12-14T06:31:01;96018.72;;;4.27;100.00
64141;BME280;50436;50.618;7.932;2023-12-14T06:33:48;96023.59;;;4.30;100.00
64141;BME280;50436;50.618;7.932;2023-12-14T06:36:41;96032.69;;;4.34;100.00
64141;BME280;50436;50.618;7.932;2023-12-14T06:39:28;96033.31;;;4.36;100.00
64141;BME280;50436;50.618;7.932;2023-12-14T06:42:14;96032.84;;;4.39;100.00
64141;BME280;50436;50.618;7.932;2023-12-14T06:45:02;96026.91;;;4.44;100.00
64141;BME280;50436;50.618;7.932;2023-12-14T06:47:48;96023.81;;;4.47;100.00
64141;BME280;50436;50.618;7.932;2023-12-14T06:50:35;96032.22;;;4.44;100.00
64141;BME280;50436;50.618;7.932;2023-12-14T06:53:21;96035.06;;;4.42;100.00
64141;BME280;50436;50.618;7.932;2023-12-14T06:56:07;96043.91;;;4.36;100.00
64141;BME280;50436;50.618;7.932;2023-12-14T06:58:56;96047.50;;;4.42;100.00
64141;BME280;50436;50.618;7.932;2023-12-14T07:01:42;96047.44;;;4.48;100.00
64141;BME280;50436;50.618;7.932;2023-12-14T07:04:28;96059.72;;;4.43;100.00
64141;BME280;50436;50.618;7.932;2023-12-14T07:07:15;96067.31;;;4.39;100.00
64141;BME280;50436;50.618;7.932;2023-12-14T07:10:01;96081.34;;;4.40;100.00
64141;BME280;50436;50.618;7.932;2023-12-14T07:12:48;96085.84;;;4.39;100.00
64141;BME280;50436;50.618;7.932;2023-12-14T07:15:34;96085.47;;;4.36;100.00
64141;BME280;50436;50.618;7.932;2023-12-14T07:18:20;96099.31;;;4.38;100.00
64141;BME280;50436;50.618;7.932;2023-12-14T07:21:07;96098.06;;;4.40;100.00
64141;BME280;50436;50.618;7.932;2023-12-14T07:23:53;96104.44;;;4.33;100.00
64141;BME280;50436;50.618;7.932;2023-12-14T07:26:39;96109.38;;;4.29;100.00
64141;BME280;50436;50.618;7.932;2023-12-14T07:29:25;96129.16;;;4.27;100.00
64141;BME280;50436;50.618;7.932;2023-12-14T07:32:11;96131.22;;;4.25;100.00
64141;BME280;50436;50.618;7.932;2023-12-14T07:34:57;96137.75;;;4.22;100.00
64141;BME280;50436;50.618;7.932;2023-12-14T07:37:43;96145.47;;;4.24;100.00
64141;BME280;50436;50.618;7.932;2023-12-14T07:40:29;96161.97;;;4.26;100.00
64141;BME280;50436;50.618;7.932;2023-12-14T07:43:15;96153.25;;;4.18;100.00
64141;BME280;50436;50.618;7.932;2023-12-14T07:46:01;96166.34;;;4.13;100.00
64141;BME280;50436;50.618;7.932;2023-12-14T07:48:47;96168.38;;;4.11;100.00
64141;BME280;50436;50.618;7.932;2023-12-14T07:51:33;96174.72;;;4.10;100.00
64141;BME280;50436;50.618;7.932;2023-12-14T07:54:22;96167.63;;;4.04;100.00
64141;BME280;50436;50.618;7.932;2023-12-14T07:57:07;96173.53;;;4.06;100.00
64141;BME280;50436;50.618;7.932;2023-12-14T07:59:53;96169.03;;;4.07;100.00
64141;BME280;50436;50.618;7.932;2023-12-14T08:02:39;96169.66;;;4.02;100.00
64141;BME280;50436;50.618;7.932;2023-12-14T08:05:27;96177.94;;;4.12;100.00
64141;BME280;50436;50.618;7.932;2023-12-14T08:08:13;96189.41;;;4.06;100.00
64141;BME280;50436;50.618;7.932;2023-12-14T08:10:59;96188.53;;;4.12;100.00
64141;BME280;50436;50.618;7.932;2023-12-14T08:13:45;96200.59;;;4.08;100.00
64141;BME280;50436;50.618;7.932;2023-12-14T08:16:31;96214.06;;;4.07;100.00
64141;BME280;50436;50.618;7.932;2023-12-14T08:19:17;96211.63;;;4.05;100.00
64141;BME280;50436;50.618;7.932;2023-12-14T08:22:03;96223.19;;;4.11;100.00
64141;BME280;50436;50.618;7.932;2023-12-14T08:24:49;96228.09;;;4.07;100.00
64141;BME280;50436;50.618;7.932;2023-12-14T08:27:35;96235.03;;;4.08;100.00
64141;BME280;50436;50.618;7.932;2023-12-14T08:30:21;96240.91;;;4.10;100.00
64141;BME280;50436;50.618;7.932;2023-12-14T08:33:07;96237.66;;;4.08;100.00
64141;BME280;50436;50.618;7.932;2023-12-14T08:35:53;96247.81;;;4.11;100.00
64141;BME280;50436;50.618;7.932;2023-12-14T08:38:39;96248.22;;;4.15;100.00
64141;BME280;50436;50.618;7.932;2023-12-14T08:41:25;96261.88;;;4.12;100.00
64141;BME280;50436;50.618;7.932;2023-12-14T08:44:11;96261.69;;;4.13;100.00
64141;BME280;50436;50.618;7.932;2023-12-14T08:46:57;96263.94;;;4.10;100.00
64141;BME280;50436;50.618;7.932;2023-12-14T08:49:43;96271.88;;;4.10;100.00
64141;BME280;50436;50.618;7.932;2023-12-14T08:52:28;96281.22;;;4.12;100.00
64141;BME280;50436;50.618;7.932;2023-12-14T08:55:14;96289.59;;;4.09;100.00
64141;BME280;50436;50.618;7.932;2023-12-14T08:58:00;96289.41;;;4.04;100.00
64141;BME280;50436;50.618;7.932;2023-12-14T09:00:46;96300.19;;;4.09;100.00
64141;BME280;50436;50.618;7.932;2023-12-14T09:03:32;96300.00;;;4.04;100.00
64141;BME280;50436;50.618;7.932;2023-12-14T09:06:18;96312.66;;;4.02;100.00
64141;BME280;50436;50.618;7.932;2023-12-14T09:09:04;96323.69;;;3.99;100.00
64141;BME280;50436;50.618;7.932;2023-12-14T09:11:49;96326.72;;;4.03;100.00
64141;BME280;50436;50.618;7.932;2023-12-14T09:14:35;96331.03;;;3.97;100.00
64141;BME280;50436;50.618;7.932;2023-12-14T09:17:21;96344.88;;;3.92;100.00
64141;BME280;50436;50.618;7.932;2023-12-14T09:20:08;96341.41;;;3.92;100.00
64141;BME280;50436;50.618;7.932;2023-12-14T09:22:55;96344.47;;;3.89;100.00
64141;BME280;50436;50.618;7.932;2023-12-14T09:25:40;96349.97;;;3.94;100.00
64141;BME280;50436;50.618;7.932;2023-12-14T09:28:26;96346.50;;;3.94;100.00
64141;BME280;50436;50.618;7.932;2023-12-14T09:31:12;96358.88;;;4.06;100.00
64141;BME280;50436;50.618;7.932;2023-12-14T09:33:58;96363.56;;;4.04;100.00
64141;BME280;50436;50.618;7.932;2023-12-14T09:36:45;96366.38;;;4.16;100.00
64141;BME280;50436;50.618;7.932;2023-12-14T09:39:31;96382.41;;;4.28;100.00
64141;BME280;50436;50.618;7.932;2023-12-14T09:42:20;96391.25;;;4.15;100.00
64141;BME280;50436;50.618;7.932;2023-12-14T09:45:07;96384.72;;;4.11;100.00
64141;BME280;50436;50.618;7.932;2023-12-14T09:47:54;96394.09;;;4.13;100.00
64141;BME280;50436;50.618;7.932;2023-12-14T09:50:40;96395.72;;;4.21;100.00
64141;BME280;50436;50.618;7.932;2023-12-14T09:53:26;96394.81;;;4.40;100.00
64141;BME280;50436;50.618;7.932;2023-12-14T09:56:12;96397.22;;;4.48;100.00
64141;BME280;50436;50.618;7.932;2023-12-14T09:58:58;96407.44;;;4.45;100.00
64141;BME280;50436;50.618;7.932;2023-12-14T10:01:47;96407.44;;;4.45;100.00
64141;BME280;50436;50.618;7.932;2023-12-14T10:04:32;96406.41;;;4.46;100.00
64141;BME280;50436;50.618;7.932;2023-12-14T10:07:20;96407.19;;;4.53;100.00
64141;BME280;50436;50.618;7.932;2023-12-14T10:10:11;96418.97;;;4.57;100.00
64141;BME280;50436;50.618;7.932;2023-12-14T10:12:58;96418.03;;;4.45;100.00
64141;BME280;50436;50.618;7.932;2023-12-14T10:15:46;96423.31;;;4.45;100.00
64141;BME280;50436;50.618;7.932;2023-12-14T10:18:32;96421.69;;;4.44;100.00
64141;BME280;50436;50.618;7.932;2023-12-14T10:21:20;96426.81;;;4.39;100.00
64141;BME280;50436;50.618;7.932;2023-12-14T10:24:09;96436.00;;;4.36;100.00
64141;BME280;50436;50.618;7.932;2023-12-14T10:26:56;96437.16;;;4.47;100.00
64141;BME280;50436;50.618;7.932;2023-12-14T10:29:42;96439.63;;;4.42;100.00
64141;BME280;50436;50.618;7.932;2023-12-14T10:32:30;96440.06;;;4.39;100.00
64141;BME280;50436;50.618;7.932;2023-12-14T10:35:16;96445.13;;;4.47;100.00
64141;BME280;50436;50.618;7.932;2023-12-14T10:38:06;96447.88;;;4.65;100.00
64141;BME280;50436;50.618;7.932;2023-12-14T10:40:54;96449.25;;;4.74;100.00
64141;BME280;50436;50.618;7.932;2023-12-14T10:43:43;96464.34;;;4.74;100.00
64141;BME280;50436;50.618;7.932;2023-12-14T10:46:30;96465.00;;;4.69;100.00
64141;BME280;50436;50.618;7.932;2023-12-14T10:49:16;96467.69;;;4.63;100.00
64141;BME280;50436;50.618;7.932;2023-12-14T10:52:03;96476.66;;;4.62;100.00
64141;BME280;50436;50.618;7.932;2023-12-14T10:54:56;96479.72;;;4.59;100.00
64141;BME280;50436;50.618;7.932;2023-12-14T10:57:45;96482.75;;;4.69;100.00
64141;BME280;50436;50.618;7.932;2023-12-14T11:00:31;96491.50;;;4.69;100.00
64141;BME280;50436;50.618;7.932;2023-12-14T11:03:18;96483.97;;;4.66;100.00
64141;BME280;50436;50.618;7.932;2023-12-14T11:06:19;96483.09;;;4.79;100.00
64141;BME280;50436;50.618;7.932;2023-12-14T11:09:07;96486.38;;;4.74;100.00
64141;BME280;50436;50.618;7.932;2023-12-14T11:14:39;96489.94;;;4.55;100.00
64141;BME280;50436;50.618;7.932;2023-12-14T11:17:25;96481.97;;;4.62;100.00
64141;BME280;50436;50.618;7.932;2023-12-14T11:20:24;96490.69;;;4.75;100.00
64141;BME280;50436;50.618;7.932;2023-12-14T11:23:14;96497.03;;;4.68;100.00
64141;BME280;50436;50.618;7.932;2023-12-14T11:26:02;96504.56;;;4.71;100.00
64141;BME280;50436;50.618;7.932;2023-12-14T11:28:50;96502.75;;;4.58;100.00
64141;BME280;50436;50.618;7.932;2023-12-14T11:31:35;96515.19;;;4.58;100.00
64141;BME280;50436;50.618;7.932;2023-12-14T11:34:24;96523.34;;;4.63;100.00
64141;BME280;50436;50.618;7.932;2023-12-14T11:37:10;96530.06;;;4.59;100.00
64141;BME280;50436;50.618;7.932;2023-12-14T11:39:56;96533.38;;;4.54;100.00
64141;BME280;50436;50.618;7.932;2023-12-14T11:42:42;96523.56;;;4.55;100.00
64141;BME280;50436;50.618;7.932;2023-12-14T11:45:31;96531.28;;;4.63;100.00
64141;BME280;50436;50.618;7.932;2023-12-14T11:48:18;96535.56;;;4.70;100.00
64141;BME280;50436;50.618;7.932;2023-12-14T11:51:06;96540.66;;;4.65;100.00
64141;BME280;50436;50.618;7.932;2023-12-14T11:53:52;96545.59;;;4.55;100.00
64141;BME280;50436;50.618;7.932;2023-12-14T11:56:37;96540.28;;;4.55;100.00
64141;BME280;50436;50.618;7.932;2023-12-14T11:59:23;96541.13;;;4.49;100.00
64141;BME280;50436;50.618;7.932;2023-12-14T12:02:09;96541.56;;;4.33;100.00
64141;BME280;50436;50.618;7.932;2023-12-14T12:04:55;96547.66;;;4.33;100.00
64141;BME280;50436;50.618;7.932;2023-12-14T12:07:41;96548.09;;;4.24;100.00
64141;BME280;50436;50.618;7.932;2023-12-14T12:10:29;96549.13;;;4.29;100.00
64141;BME280;50436;50.618;7.932;2023-12-14T12:13:17;96550.97;;;4.29;100.00
64141;BME280;50436;50.618;7.932;2023-12-14T12:16:03;96556.06;;;4.24;100.00
64141;BME280;50436;50.618;7.932;2023-12-14T12:18:50;96560.75;;;4.28;100.00
64141;BME280;50436;50.618;7.932;2023-12-14T12:21:36;96564.00;;;4.37;100.00
64141;BME280;50436;50.618;7.932;2023-12-14T12:24:22;96562.16;;;4.37;100.00
64141;BME280;50436;50.618;7.932;2023-12-14T12:27:08;96564.78;;;4.44;100.00
64141;BME280;50436;50.618;7.932;2023-12-14T12:29:55;96570.25;;;4.49;100.00
64141;BME280;50436;50.618;7.932;2023-12-14T12:32:41;96564.53;;;4.59;100.00
64141;BME280;50436;50.618;7.932;2023-12-14T12:35:27;96563.91;;;4.63;100.00
64141;BME280;50436;50.618;7.932;2023-12-14T12:38:16;96568.03;;;4.59;100.00
64141;BME280;50436;50.618;7.932;2023-12-14T12:41:02;96578.03;;;4.44;100.00
64141;BME280;50436;50.618;7.932;2023-12-14T12:43:48;96573.75;;;4.43;100.00
64141;BME280;50436;50.618;7.932;2023-12-14T12:46:35;96576.16;;;4.51;100.00
64141;BME280;50436;50.618;7.932;2023-12-14T12:49:21;96576.16;;;4.51;100.00
64141;BME280;50436;50.618;7.932;2023-12-14T12:52:07;96581.69;;;4.50;100.00
64141;BME280;50436;50.618;7.932;2023-12-14T12:54:52;96580.25;;;4.47;100.00
64141;BME280;50436;50.618;7.932;2023-12-14T12:57:38;96574.59;;;4.37;100.00
64141;BME280;50436;50.618;7.932;2023-12-14T13:00:24;96580.69;;;4.44;100.00
64141;BME280;50436;50.618;7.932;2023-12-14T13:03:11;96586.97;;;4.43;100.00
64141;BME280;50436;50.618;7.932;2023-12-14T13:05:57;96587.19;;;4.35;100.00
64141;BME280;50436;50.618;7.932;2023-12-14T13:08:43;96584.38;;;4.30;100.00
64141;BME280;50436;50.618;7.932;2023-12-14T13:11:29;96588.66;;;4.31;100.00
64141;BME280;50436;50.618;7.932;2023-12-14T13:14:15;96593.13;;;4.24;100.00
64141;BME280;50436;50.618;7.932;2023-12-14T13:17:01;96596.19;;;4.27;100.00
64141;BME280;50436;50.618;7.932;2023-12-14T13:19:46;96601.91;;;4.31;100.00
64141;BME280;50436;50.618;7.932;2023-12-14T13:22:32;96590.91;;;4.21;100.00
64141;BME280;50436;50.618;7.932;2023-12-14T13:25:18;96591.69;;;4.28;100.00
64141;BME280;50436;50.618;7.932;2023-12-14T13:28:05;96602.31;;;4.14;100.00
64141;BME280;50436;50.618;7.932;2023-12-14T13:30:54;96612.91;;;4.14;100.00
64141;BME280;50436;50.618;7.932;2023-12-14T13:33:40;96604.94;;;4.01;100.00
64141;BME280;50436;50.618;7.932;2023-12-14T13:36:26;96615.34;;;4.03;100.00
64141;BME280;50436;50.618;7.932;2023-12-14T13:39:12;96614.94;;;4.06;100.00
64141;BME280;50436;50.618;7.932;2023-12-14T13:41:58;96620.84;;;4.01;100.00
64141;BME280;50436;50.618;7.932;2023-12-14T13:44:44;96632.88;;;3.97;100.00
64141;BME280;50436;50.618;7.932;2023-12-14T13:47:30;96635.31;;;3.92;100.00
64141;BME280;50436;50.618;7.932;2023-12-14T13:50:16;96638.75;;;3.86;100.00
64141;BME280;50436;50.618;7.932;2023-12-14T13:53:02;96651.78;;;3.74;100.00
64141;BME280;50436;50.618;7.932;2023-12-14T13:55:48;96648.72;;;3.77;100.00
64141;BME280;50436;50.618;7.932;2023-12-14T13:58:36;96656.88;;;3.76;100.00
64141;BME280;50436;50.618;7.932;2023-12-14T14:01:23;96663.56;;;3.78;100.00
64141;BME280;50436;50.618;7.932;2023-12-14T14:04:11;96672.34;;;3.79;100.00
64141;BME280;50436;50.618;7.932;2023-12-14T14:06:57;96675.59;;;3.87;100.00
64141;BME280;50436;50.618;7.932;2023-12-14T14:09:42;96688.81;;;3.81;100.00
64141;BME280;50436;50.618;7.932;2023-12-14T14:12:28;96687.78;;;3.69;100.00
64141;BME280;50436;50.618;7.932;2023-12-14T14:15:14;96695.34;;;3.78;100.00
64141;BME280;50436;50.618;7.932;2023-12-14T14:18:00;96696.38;;;3.84;100.00
64141;BME280;50436;50.618;7.932;2023-12-14T14:20:46;96697.19;;;3.78;100.00
64141;BME280;50436;50.618;7.932;2023-12-14T14:23:32;96710.00;;;3.81;100.00
64141;BME280;50436;50.618;7.932;2023-12-14T14:26:18;96721.59;;;3.67;100.00
64141;BME280;50436;50.618;7.932;2023-12-14T14:29:04;96728.31;;;3.69;100.00
64141;BME280;50436;50.618;7.932;2023-12-14T14:31:50;96725.06;;;3.67;100.00
64141;BME280;50436;50.618;7.932;2023-12-14T14:34:36;96735.03;;;3.72;100.00
64141;BME280;50436;50.618;7.932;2023-12-14T14:37:22;96735.81;;;3.66;100.00
64141;BME280;50436;50.618;7.932;2023-12-14T14:40:08;96740.75;;;3.75;100.00
64141;BME280;50436;50.618;7.932;2023-12-14T14:42:54;96745.25;;;3.81;100.00
64141;BME280;50436;50.618;7.932;2023-12-14T14:45:40;96749.34;;;3.84;100.00